KSEAKFHR

Guest
Details From KSEA - Seattle Tacoma Intl
To KFHR - FRIDAY HARBOR
Flight Number -
Tags decoded
Created
Modified
Stats Distance 71 nm / 131 km
Max Altitude 0 ft / 0 m
Waypoints 3
Social Downloads 0
Likes 0
Share VATSIM

Download

Looking for another format? Having issues loading an existing format? Contact us
Advertisement - Login to hide

Notes

Requested: KSEA LOFAL KFHR

Route

KSEA LOFAL KFHR

ID Type Via Altitude Latitude Longitude Leg Dist Tot Dist Heading (true) Name
O KSEA APT - 0 ft / 0 m 47.45019˚ -122.31232˚ - 0 nm - Seattle Tacoma Intl
LOFAL FIX - 0 ft / 0 m 47.85155˚ -122.68052˚ 28 nm 28 nm 328° / 328° -
O KFHR APT - 0 ft / 0 m 48.52197˚ -123.02437˚ 42 nm 70 nm 341° / 341° FRIDAY HARBOR

Altitude Profile

Advertisement - Login to hide

KSEA

Details ICAO KSEA (SEA)
Name Seattle Tacoma Intl
Region United States
Timezone America/Los_Angeles (UTC-8.0)
Stats Elevation 433 ft / 132 m (AMSL)
Location 47.450188° -122.312320°
Runways 3
Magnetic Variation 15.686° E

METAR

KSEA 110853Z 00000KT 10SM CLR 02/00 A3030 RMK AO2 SLP270 T00220000 58006 $

Decode

TAF

KSEA 110900Z 1109/1212 07003KT P6SM SKC FM111200 12003KT P6SM VCFG SKC FM112000 17004KT P6SM SKC FM120400 14005KT P6SM BKN200 FM121000 16005KT P6SM SCT080 BKN200

Decode

Departure Runways

ID Width Length Bearing (true) Bearing (mag) Surface Threshold Offset Overrun Length
16C 151 ft / 46 m 9,429 ft / 2,874 m 180.34° 164.65° Concrete 0 ft / 0 m 223 ft / 68 m
16L 151 ft / 46 m 11,904 ft / 3,628 m 180.34° 164.65° Concrete 0 ft / 0 m 151 ft / 46 m
16R 151 ft / 46 m 8,503 ft / 2,592 m 180.34° 164.65° Concrete 0 ft / 0 m 164 ft / 50 m
34C 151 ft / 46 m 9,429 ft / 2,874 m 0.34° 344.65° Concrete 0 ft / 0 m 394 ft / 120 m
34L 151 ft / 46 m 8,503 ft / 2,592 m 0.34° 344.65° Concrete 0 ft / 0 m 394 ft / 120 m
34R 151 ft / 46 m 11,904 ft / 3,628 m 0.34° 344.65° Concrete 0 ft / 0 m 400 ft / 122 m

KFHR

Details ICAO KFHR (FRD)
Name FRIDAY HARBOR
Region United States
Timezone America/Los_Angeles (UTC-8.0)
Stats Elevation 113 ft / 34 m (AMSL)
Location 48.521966° -123.024368°
Runways 1
Magnetic Variation 16.074° E

METAR

KFHR 110853Z AUTO 00000KT 8SM CLR 02/02 A3034 RMK AO2 SLP273 T00170017 58000 $

Decode

TAF

Not found

Destination Runways

ID Width Length Bearing (true) Bearing (mag) Surface Threshold Offset Overrun Length
16 75 ft / 23 m 3,402 ft / 1,037 m 177.06° 160.99° Asphalt 0 ft / 0 m 0 ft / 0 m
34 75 ft / 23 m 3,402 ft / 1,037 m 357.06° 340.99° Asphalt 0 ft / 0 m 0 ft / 0 m

Popular Alternatives